Time;durP1;ratioP1;P1;durP2;ratioP2;P2;SDS_P1;SDS_P2;PMS_P1;PMS_P2;Temp;Humidity;BMP_temperature;BMP_pressure;BME280_temperature;BME280_humidity;BME280_pressure;Samples;Min_cycle;Max_cycle;Signal;HPM_P1;HPM_P2
2022/02/08 00:00:58;;;;;;;20.35;12.65;;;2.60;99.90;;;;;;4900386;29;20083;-82
2022/02/08 00:03:23;;;;;;;20.35;12.00;;;2.60;99.90;;;;;;4902519;29;20028;-82
2022/02/08 00:06:15;;;;;;;20.30;11.82;;;2.60;99.90;;;;;;4900968;29;20096;-82
2022/02/08 00:08:40;;;;;;;26.35;13.82;;;2.60;99.90;;;;;;4901742;29;20038;-82
2022/02/08 00:11:06;;;;;;;27.05;14.38;;;2.70;99.90;;;;;;4885435;29;20024;-83
2022/02/08 00:13:32;;;;;;;20.65;11.98;;;2.70;99.90;;;;;;4901322;29;20103;-83
2022/02/08 00:15:58;;;;;;;23.00;12.45;;;2.70;99.90;;;;;;4885195;29;20031;-83
2022/02/08 00:18:23;;;;;;;24.15;12.98;;;2.70;99.90;;;;;;4900585;29;20420;-83
2022/02/08 00:20:49;;;;;;;30.00;16.58;;;2.70;99.90;;;;;;4883816;29;20038;-84
2022/02/08 00:23:15;;;;;;;33.70;16.98;;;2.70;99.90;;;;;;4884751;29;20069;-83
2022/02/08 00:25:41;;;;;;;29.05;15.70;;;2.70;99.90;;;;;;4885186;29;20036;-83
2022/02/08 00:28:06;;;;;;;30.13;15.50;;;2.60;99.90;;;;;;4902203;29;20112;-84
2022/02/08 00:30:32;;;;;;;31.98;16.23;;;2.60;99.90;;;;;;4883368;29;20115;-82
2022/02/08 00:32:58;;;;;;;25.63;14.98;;;2.60;99.90;;;;;;4881749;29;20040;-82
2022/02/08 00:35:24;;;;;;;30.20;16.23;;;2.60;99.90;;;;;;4881952;29;20025;-82
2022/02/08 00:37:49;;;;;;;31.52;16.63;;;2.60;99.90;;;;;;4868111;29;20033;-82
2022/02/08 00:40:15;;;;;;;27.58;15.82;;;2.50;99.90;;;;;;4901467;29;20080;-83
2022/02/08 00:42:43;;;;;;;27.23;14.50;;;2.50;99.90;;;;;;4885290;29;20064;-82
2022/02/08 00:45:38;;;;;;;27.25;15.85;;;2.50;99.90;;;;;;4885155;29;20490;-82
2022/02/08 00:50:40;;;;;;;27.10;15.00;;;2.50;99.90;;;;;;4902212;29;20060;-82
2022/02/08 00:53:06;;;;;;;26.13;14.65;;;2.50;99.90;;;;;;4884421;29;20029;-82
2022/02/08 00:55:32;;;;;;;27.52;15.50;;;2.50;99.90;;;;;;4884680;29;20040;-82
2022/02/08 00:57:58;;;;;;;31.75;16.08;;;2.50;99.90;;;;;;4884041;29;20119;-82
2022/02/08 01:00:24;;;;;;;32.15;16.52;;;2.50;99.90;;;;;;4897888;29;20441;-81
2022/02/08 01:02:52;;;;;;;30.35;15.73;;;2.40;99.90;;;;;;4900592;29;20036;-80
2022/02/08 01:05:18;;;;;;;25.17;14.90;;;2.40;99.90;;;;;;4883551;29;20029;-82
2022/02/08 01:07:44;;;;;;;25.48;14.43;;;2.40;99.90;;;;;;4884581;29;20028;-81
2022/02/08 01:10:10;;;;;;;26.25;14.32;;;2.40;99.90;;;;;;4901099;29;20032;-82
2022/02/08 01:12:37;;;;;;;26.17;15.25;;;2.40;99.90;;;;;;4884288;29;20032;-82
2022/02/08 01:15:06;;;;;;;28.73;14.18;;;2.40;99.90;;;;;;4884469;29;20029;-82
2022/02/08 01:17:31;;;;;;;27.25;15.13;;;2.30;99.90;;;;;;4884020;29;20029;-82
2022/02/08 01:20:19;;;;;;;31.33;15.40;;;2.30;99.90;;;;;;4883823;29;20047;-82
2022/02/08 01:22:45;;;;;;;27.75;15.43;;;2.30;99.90;;;;;;4901002;29;20119;-83
2022/02/08 01:25:19;;;;;;;28.40;16.60;;;2.30;99.90;;;;;;4900452;29;20068;-84
2022/02/08 01:27:53;;;;;;;33.38;16.10;;;2.30;99.90;;;;;;4884025;29;20029;-82
2022/02/08 01:30:29;;;;;;;29.13;16.23;;;2.20;99.90;;;;;;4884129;29;20037;-82
2022/02/08 01:38:11;;;;;;;26.42;15.15;;;2.30;99.90;;;;;;4900065;29;20037;-83
2022/02/08 01:41:01;;;;;;;26.83;14.88;;;2.30;99.90;;;;;;4902416;29;20025;-81
2022/02/08 01:51:07;;;;;;;29.13;15.80;;;2.20;99.90;;;;;;4902282;29;20032;-82
2022/02/08 01:53:33;;;;;;;29.50;15.93;;;2.20;99.90;;;;;;4883053;29;20029;-82
2022/02/08 01:56:00;;;;;;;28.80;15.18;;;2.20;99.90;;;;;;4899708;29;20025;-83
2022/02/08 01:58:25;;;;;;;29.63;16.92;;;2.20;99.90;;;;;;4883327;29;20100;-82
2022/02/08 02:00:51;;;;;;;28.77;15.77;;;2.30;99.90;;;;;;4899319;29;20148;-83
2022/02/08 02:03:17;;;;;;;23.83;14.25;;;2.20;99.90;;;;;;4882779;29;20412;-82
2022/02/08 02:05:43;;;;;;;27.95;14.95;;;2.30;99.90;;;;;;4882565;29;20029;-83
2022/02/08 02:08:08;;;;;;;28.55;15.90;;;2.30;99.90;;;;;;4883384;29;20074;-82
2022/02/08 02:10:34;;;;;;;23.50;13.77;;;2.30;99.90;;;;;;4883371;29;20036;-82
2022/02/08 02:13:03;;;;;;;25.45;14.60;;;2.30;99.90;;;;;;4882792;29;20120;-83
2022/02/08 02:15:29;;;;;;;30.10;16.13;;;2.30;99.90;;;;;;4882988;29;20040;-84
2022/02/08 02:17:55;;;;;;;25.10;14.38;;;2.30;99.90;;;;;;4893072;29;20033;-82
2022/02/08 02:20:22;;;;;;;27.27;15.05;;;2.20;99.90;;;;;;4871765;29;20070;-84
2022/02/08 02:22:48;;;;;;;27.40;14.73;;;2.20;99.90;;;;;;4889315;29;20029;-85
2022/02/08 02:25:20;;;;;;;24.83;14.57;;;2.20;99.90;;;;;;4882738;29;20041;-84
2022/02/08 02:27:48;;;;;;;29.50;16.13;;;2.20;99.90;;;;;;4899456;29;20024;-83
2022/02/08 02:30:15;;;;;;;24.55;14.38;;;2.20;99.90;;;;;;4899788;29;20025;-84
2022/02/08 02:32:40;;;;;;;29.17;15.32;;;2.10;99.90;;;;;;4899729;29;20040;-83
2022/02/08 02:35:07;;;;;;;28.70;16.25;;;2.20;99.90;;;;;;4882987;29;20028;-84
2022/02/08 02:37:32;;;;;;;30.23;16.88;;;2.10;99.90;;;;;;4883151;29;20086;-83
2022/02/08 02:39:58;;;;;;;34.28;18.63;;;2.10;99.90;;;;;;4899845;29;20040;-82
2022/02/08 02:42:26;;;;;;;28.20;16.20;;;2.10;99.90;;;;;;4900082;29;20037;-82
2022/02/08 02:44:52;;;;;;;31.92;18.75;;;2.00;99.90;;;;;;4898350;29;20056;-83
2022/02/08 02:47:18;;;;;;;29.50;17.58;;;2.00;99.90;;;;;;4882068;29;20460;-83
2022/02/08 02:49:43;;;;;;;34.03;18.20;;;2.00;99.90;;;;;;4882314;29;20040;-84
2022/02/08 02:52:09;;;;;;;31.92;18.27;;;2.00;99.90;;;;;;4882162;29;20474;-84
2022/02/08 02:54:35;;;;;;;30.10;18.27;;;1.90;99.90;;;;;;4882613;29;20175;-84
2022/02/08 02:57:01;;;;;;;31.15;17.85;;;1.90;99.90;;;;;;4901136;29;20108;-83
2022/02/08 02:59:30;;;;;;;27.52;16.42;;;1.90;99.90;;;;;;4899764;29;20052;-83
2022/02/08 03:04:48;;;;;;;25.52;15.90;;;1.90;99.90;;;;;;4899403;29;20476;-83
2022/02/08 03:18:35;;;;;;;28.00;15.50;;;2.00;99.90;;;;;;4898894;29;20099;-84
2022/02/08 03:21:02;;;;;;;24.95;14.57;;;1.90;99.90;;;;;;4882576;29;20435;-84
2022/02/08 03:23:28;;;;;;;28.02;15.70;;;2.00;99.90;;;;;;4899547;29;20032;-84
2022/02/08 03:25:54;;;;;;;28.15;15.18;;;2.00;99.90;;;;;;4884343;29;20028;-83
2022/02/08 03:28:20;;;;;;;23.45;14.07;;;1.90;99.90;;;;;;4884290;29;20036;-84
2022/02/08 03:30:46;;;;;;;28.75;16.13;;;2.00;99.90;;;;;;4902436;29;20056;-84
2022/02/08 03:33:11;;;;;;;26.40;16.13;;;2.00;99.90;;;;;;4902582;29;20069;-83
2022/02/08 03:35:37;;;;;;;28.38;16.40;;;2.00;99.90;;;;;;4902146;29;20044;-84
2022/02/08 03:38:05;;;;;;;25.50;15.18;;;2.00;99.90;;;;;;4886709;29;20556;-83
2022/02/08 03:43:13;;;;;;;26.30;15.25;;;2.00;99.90;;;;;;4902695;29;20120;-83
2022/02/08 03:45:40;;;;;;;24.60;13.98;;;2.00;99.90;;;;;;4885320;29;20496;-83
2022/02/08 03:48:06;;;;;;;28.65;17.02;;;2.00;99.90;;;;;;4886056;29;20029;-83
2022/02/08 03:50:32;;;;;;;31.58;17.27;;;2.00;99.90;;;;;;4885168;29;20029;-83
2022/02/08 03:52:58;;;;;;;27.58;16.05;;;2.00;99.90;;;;;;4885402;29;20053;-83
2022/02/08 03:55:24;;;;;;;26.80;15.73;;;2.00;99.90;;;;;;4887026;29;20036;-82
2022/02/08 03:57:49;;;;;;;28.05;16.45;;;2.00;99.90;;;;;;4885762;29;20029;-83
2022/02/08 04:00:17;;;;;;;30.02;16.73;;;1.90;99.90;;;;;;4885676;29;20056;-84
2022/02/08 04:02:48;;;;;;;28.88;15.98;;;1.90;99.90;;;;;;4902469;29;20044;-84
2022/02/08 04:05:29;;;;;;;25.35;14.65;;;2.00;99.90;;;;;;4885852;29;20493;-84
2022/02/08 04:07:59;;;;;;;25.83;15.20;;;2.00;99.90;;;;;;4885488;29;20399;-83
2022/02/08 04:10:28;;;;;;;25.08;15.25;;;1.90;99.90;;;;;;4902529;29;20036;-83
2022/02/08 04:42:20;;;;;;;34.42;19.13;;;1.90;99.90;;;;;;4902780;29;20384;-85
2022/02/08 04:45:05;;;;;;;33.97;19.88;;;1.90;99.90;;;;;;4887306;29;20131;-83
2022/02/08 04:47:37;;;;;;;31.58;18.75;;;1.80;99.90;;;;;;4873999;29;20115;-84
2022/02/08 04:50:03;;;;;;;32.10;18.33;;;1.80;99.90;;;;;;4889851;29;20466;-83
2022/02/08 04:52:30;;;;;;;29.50;17.42;;;1.80;99.90;;;;;;4884081;29;20029;-86
2022/02/08 04:58:28;;;;;;;32.83;18.13;;;1.80;99.90;;;;;;4887146;29;20040;-85
2022/02/08 05:37:03;;;;;;;35.05;20.58;;;1.60;99.90;;;;;;4902054;29;20040;-81
2022/02/08 05:42:23;;;;;;;35.97;21.83;;;1.60;99.90;;;;;;4899524;29;20409;-80
2022/02/08 05:45:05;;;;;;;36.85;21.38;;;1.60;99.90;;;;;;4882397;29;20130;-80
2022/02/08 05:47:31;;;;;;;37.58;21.50;;;1.60;99.90;;;;;;4882874;29;20036;-80
2022/02/08 05:50:11;;;;;;;37.45;22.45;;;1.50;99.90;;;;;;4898554;29;20029;-82
2022/02/08 05:55:21;;;;;;;38.25;22.23;;;1.50;99.90;;;;;;4897590;29;20128;-81
2022/02/08 05:57:50;;;;;;;37.33;21.25;;;1.50;99.90;;;;;;4880452;29;20511;-80
2022/02/08 06:00:16;;;;;;;39.05;22.70;;;1.50;99.90;;;;;;4897051;29;20072;-82
2022/02/08 06:02:42;;;;;;;36.95;22.20;;;1.50;99.90;;;;;;4897425;29;20029;-81
2022/02/08 06:05:13;;;;;;;40.30;23.05;;;1.50;99.90;;;;;;4880869;29;20671;-82
2022/02/08 06:07:39;;;;;;;42.50;24.38;;;1.50;99.90;;;;;;4882584;29;20025;-81
2022/02/08 06:10:05;;;;;;;36.88;20.60;;;1.50;99.90;;;;;;4882483;29;20033;-81
2022/02/08 06:12:31;;;;;;;34.17;20.38;;;1.50;99.90;;;;;;4881892;29;20047;-81
2022/02/08 06:15:05;;;;;;;36.17;21.50;;;1.50;99.90;;;;;;4882315;29;20476;-81
2022/02/08 06:17:31;;;;;;;37.83;22.23;;;1.50;99.90;;;;;;4896343;29;20108;-81
2022/02/08 06:19:56;;;;;;;39.80;23.15;;;1.50;99.90;;;;;;4880899;29;20177;-81
2022/02/08 06:22:25;;;;;;;33.85;20.77;;;1.40;99.90;;;;;;4881174;29;20971;-81
2022/02/08 06:24:50;;;;;;;37.85;21.95;;;1.40;99.90;;;;;;4882402;29;20032;-80
2022/02/08 06:27:16;;;;;;;35.53;21.25;;;1.40;99.90;;;;;;4885427;29;20035;-79
2022/02/08 06:29:42;;;;;;;34.78;20.88;;;1.40;99.90;;;;;;4891141;29;20044;-78
2022/02/08 06:32:08;;;;;;;34.50;21.42;;;1.50;99.90;;;;;;4887552;29;20122;-81
2022/02/08 06:34:34;;;;;;;33.95;19.85;;;1.40;99.90;;;;;;4875524;29;20041;-81
2022/02/08 06:37:07;;;;;;;31.88;19.38;;;1.50;99.90;;;;;;4889029;29;20028;-81
2022/02/08 06:39:36;;;;;;;33.60;19.25;;;1.50;99.90;;;;;;4887399;29;20056;-82
2022/02/08 06:42:02;;;;;;;28.13;17.73;;;1.50;99.90;;;;;;4880226;29;20464;-80
2022/02/08 06:44:28;;;;;;;148.10;74.35;;;1.50;99.90;;;;;;4879057;29;20044;-79
2022/02/08 06:46:54;;;;;;;170.10;90.18;;;1.50;99.90;;;;;;4878674;29;20413;-80
2022/02/08 06:49:20;;;;;;;71.13;39.42;;;1.50;99.90;;;;;;4879183;29;20036;-77
2022/02/08 06:51:46;;;;;;;49.03;27.23;;;1.60;99.90;;;;;;4878382;29;20035;-78
2022/02/08 06:54:12;;;;;;;40.97;23.38;;;1.60;99.90;;;;;;4879060;29;20464;-81
2022/02/08 06:56:38;;;;;;;34.63;20.73;;;1.60;99.90;;;;;;4879018;29;20037;-78
2022/02/08 06:59:08;;;;;;;33.17;19.77;;;1.60;99.90;;;;;;4879396;29;20082;-78
2022/02/08 07:01:37;;;;;;;31.23;18.25;;;1.60;99.90;;;;;;4878577;29;20033;-78
2022/02/08 07:04:06;;;;;;;33.85;19.40;;;1.60;99.90;;;;;;4882669;29;20447;-78
2022/02/08 07:06:32;;;;;;;32.78;18.45;;;1.70;99.90;;;;;;4882537;29;20032;-78
2022/02/08 07:08:58;;;;;;;26.67;16.55;;;1.70;99.90;;;;;;4883740;29;20033;-77
2022/02/08 07:11:25;;;;;;;31.52;18.70;;;1.70;99.90;;;;;;4882641;29;20040;-77
2022/02/08 07:13:52;;;;;;;27.67;17.65;;;1.80;99.90;;;;;;4887459;29;20480;-78
2022/02/08 07:16:19;;;;;;;28.67;16.45;;;1.80;99.90;;;;;;4901950;29;20040;-79
2022/02/08 07:18:44;;;;;;;91.72;45.60;;;1.80;99.90;;;;;;4884777;29;20083;-79
2022/02/08 07:21:11;;;;;;;47.75;26.38;;;1.90;99.90;;;;;;4902013;29;20037;-81
2022/02/08 07:23:40;;;;;;;87.25;44.10;;;1.90;99.90;;;;;;4890697;29;20040;-80
2022/02/08 07:26:08;;;;;;;46.47;25.33;;;1.90;99.90;;;;;;4892526;29;20383;-78
2022/02/08 07:28:44;;;;;;;30.85;17.65;;;2.00;99.90;;;;;;4885387;29;20488;-79
2022/02/08 07:31:21;;;;;;;24.52;13.90;;;2.00;99.90;;;;;;4901684;29;20147;-78
2022/02/08 07:33:55;;;;;;;19.80;12.30;;;2.00;99.90;;;;;;4885583;29;20037;-79
2022/02/08 07:36:38;;;;;;;19.55;12.32;;;2.10;99.90;;;;;;4902103;29;20024;-81
2022/02/08 07:39:08;;;;;;;20.20;11.75;;;2.10;99.90;;;;;;4900259;29;20029;-80
2022/02/08 07:41:40;;;;;;;17.67;11.75;;;2.20;99.90;;;;;;4899469;29;20037;-78
2022/02/08 07:44:12;;;;;;;16.00;10.57;;;2.20;99.90;;;;;;4874134;29;20124;-80
2022/02/08 07:46:38;;;;;;;18.48;11.50;;;2.20;99.90;;;;;;4883023;29;20037;-80
2022/02/08 07:49:05;;;;;;;21.05;12.52;;;2.20;99.90;;;;;;4884602;29;20036;-78
2022/02/08 07:51:33;;;;;;;19.65;11.40;;;2.20;99.90;;;;;;4898244;29;20060;-78
2022/02/08 07:54:00;;;;;;;18.38;11.63;;;2.20;99.90;;;;;;4898674;29;20099;-78
2022/02/08 07:56:26;;;;;;;14.57;9.73;;;2.20;99.90;;;;;;4899288;29;20063;-78
2022/02/08 07:58:52;;;;;;;15.65;10.20;;;2.30;99.90;;;;;;4883359;29;20088;-79
2022/02/08 08:01:17;;;;;;;15.63;10.20;;;2.30;99.90;;;;;;4898036;29;20032;-77
2022/02/08 08:03:44;;;;;;;16.10;9.95;;;2.30;99.90;;;;;;4898032;29;20020;-79
2022/02/08 08:06:12;;;;;;;17.08;9.38;;;2.30;99.90;;;;;;4897807;29;20475;-79
2022/02/08 08:08:38;;;;;;;16.67;9.63;;;2.30;99.90;;;;;;4898166;29;20036;-79
2022/02/08 08:11:09;;;;;;;14.95;9.05;;;2.30;99.90;;;;;;4897794;29;20036;-80
2022/02/08 08:13:39;;;;;;;14.05;8.07;;;2.30;99.90;;;;;;4897115;29;20032;-77
2022/02/08 08:16:17;;;;;;;12.98;8.23;;;2.30;99.90;;;;;;4886171;29;20550;-78
2022/02/08 08:21:26;;;;;;;12.18;7.90;;;2.30;99.90;;;;;;4902135;29;20037;-78
2022/02/08 08:23:53;;;;;;;11.98;7.10;;;2.30;99.90;;;;;;4900175;29;20420;-79
2022/02/08 08:26:20;;;;;;;12.32;7.22;;;2.40;99.90;;;;;;4885005;29;20029;-80
2022/02/08 08:28:45;;;;;;;9.32;6.40;;;2.40;99.90;;;;;;4900752;29;20095;-79
2022/02/08 08:31:11;;;;;;;10.52;6.20;;;2.40;99.90;;;;;;4884642;29;20481;-79
2022/02/08 08:33:37;;;;;;;13.27;6.45;;;2.40;99.90;;;;;;4901796;29;20047;-78
2022/02/08 08:36:04;;;;;;;10.20;6.35;;;2.40;99.90;;;;;;4900242;29;20395;-78
2022/02/08 08:38:32;;;;;;;13.00;6.78;;;2.40;99.90;;;;;;4884928;29;20032;-78
2022/02/08 08:51:41;;;;;;;12.10;6.13;;;2.40;99.90;;;;;;4900532;29;20029;-79
2022/02/08 08:53:35;;;;;;;9.75;5.45;;;2.50;99.90;;;;;;4886732;29;20036;-79
2022/02/08 08:56:01;;;;;;;10.50;5.05;;;2.40;99.90;;;;;;4899665;29;20036;-78
2022/02/08 08:58:29;;;;;;;9.90;4.88;;;2.50;99.90;;;;;;4899555;29;20036;-79
2022/02/08 09:00:55;;;;;;;9.13;5.03;;;2.50;99.90;;;;;;4883886;29;20052;-78
2022/02/08 09:03:21;;;;;;;8.63;4.78;;;2.60;99.90;;;;;;4901238;29;20100;-79
2022/02/08 09:05:46;;;;;;;7.95;4.53;;;2.60;99.90;;;;;;4899831;29;20115;-79
2022/02/08 09:08:12;;;;;;;7.32;4.18;;;2.70;99.90;;;;;;4900361;29;20432;-79
2022/02/08 09:10:48;;;;;;;7.50;4.50;;;2.70;99.90;;;;;;4902939;29;20031;-79
2022/02/08 09:13:24;;;;;;;8.02;4.30;;;2.80;99.90;;;;;;4914316;29;20088;-79
2022/02/08 09:29:07;;;;;;;9.05;4.80;;;3.10;99.90;;;;;;4900719;29;20036;-78
2022/02/08 09:31:36;;;;;;;;;;;3.20;99.90;;;;;;4901189;29;20037;-79
2022/02/08 09:34:02;;;;;;;6.25;3.92;;;3.20;99.90;;;;;;4898660;29;20426;-79
2022/02/08 09:36:28;;;;;;;6.85;4.00;;;3.20;99.90;;;;;;4900081;29;20112;-79
2022/02/08 09:38:54;;;;;;;7.32;4.15;;;3.30;99.90;;;;;;4882924;29;20110;-79
2022/02/08 09:41:22;;;;;;;6.22;3.75;;;3.40;99.90;;;;;;4899560;29;20024;-78
2022/02/08 09:43:49;;;;;;;6.50;3.40;;;3.50;99.90;;;;;;4883315;29;20037;-78
2022/02/08 09:46:17;;;;;;;7.95;4.32;;;3.60;99.90;;;;;;4882901;29;20032;-78
2022/02/08 09:48:57;;;;;;;6.70;4.18;;;3.60;99.90;;;;;;4900257;29;20474;-79
2022/02/08 09:51:24;;;;;;;7.05;3.90;;;3.70;99.90;;;;;;4898454;29;20050;-78
2022/02/08 09:53:56;;;;;;;6.90;3.90;;;3.80;99.90;;;;;;4899466;29;20037;-78
2022/02/08 09:56:23;;;;;;;5.97;3.85;;;3.90;99.90;;;;;;4883015;29;20395;-79
2022/02/08 09:58:50;;;;;;;4.45;3.28;;;3.90;99.90;;;;;;4899282;29;20127;-78
2022/02/08 10:01:23;;;;;;;6.18;3.72;;;4.00;99.90;;;;;;4899694;29;20021;-79
2022/02/08 10:03:53;;;;;;;6.25;3.53;;;4.10;99.90;;;;;;4899804;29;20036;-78
2022/02/08 10:06:20;;;;;;;7.22;3.85;;;4.10;99.90;;;;;;4899719;29;20029;-79
2022/02/08 10:08:56;;;;;;;6.85;3.95;;;4.20;99.90;;;;;;4888807;29;20037;-78
2022/02/08 10:11:27;;;;;;;8.50;4.07;;;4.20;99.90;;;;;;4887517;29;20036;-78
2022/02/08 10:20:09;;;;;;;7.07;4.07;;;4.50;99.90;;;;;;4899477;29;20064;-79
2022/02/08 10:22:08;;;;;;;6.82;4.15;;;4.50;99.90;;;;;;4898760;29;20380;-79
2022/02/08 10:24:37;;;;;;;10.18;4.65;;;4.60;99.90;;;;;;4899396;29;20104;-79
2022/02/08 10:27:18;;;;;;;8.48;4.45;;;4.60;99.90;;;;;;4882934;29;20127;-79
2022/02/08 10:37:49;;;;;;;8.27;3.90;;;4.70;99.90;;;;;;4898979;29;20039;-79
2022/02/08 10:40:16;;;;;;;6.43;3.65;;;4.70;99.90;;;;;;4898160;29;20178;-79
2022/02/08 10:42:50;;;;;;;7.28;4.20;;;4.70;99.90;;;;;;4882043;29;20032;-80
2022/02/08 10:45:19;;;;;;;8.02;4.13;;;4.70;99.90;;;;;;4882253;29;20468;-79
2022/02/08 10:47:45;;;;;;;8.27;3.63;;;4.90;99.90;;;;;;4882344;29;20028;-79
2022/02/08 10:50:12;;;;;;;6.97;4.00;;;5.30;99.90;;;;;;4882155;29;20033;-79
2022/02/08 10:52:41;;;;;;;7.43;4.00;;;5.60;99.90;;;;;;4898413;29;20032;-79
2022/02/08 10:58:06;;;;;;;7.63;4.05;;;6.10;99.80;;;;;;4901085;29;20040;-79
2022/02/08 11:03:08;;;;;;;7.22;4.03;;;6.40;96.20;;;;;;4901526;29;20056;-79
2022/02/08 11:10:56;;;;;;;6.80;3.60;;;6.90;93.90;;;;;;4899139;29;20028;-79
2022/02/08 11:21:02;;;;;;;7.25;3.80;;;6.60;89.30;;;;;;4898525;29;20085;-78
2022/02/08 11:23:36;;;;;;;7.15;4.50;;;6.50;88.50;;;;;;4896789;29;20067;-78
2022/02/08 11:26:02;;;;;;;8.25;4.57;;;6.40;89.20;;;;;;4881995;29;20096;-79
2022/02/08 11:28:46;;;;;;;6.75;3.95;;;6.40;89.30;;;;;;4898136;29;20108;-79
2022/02/08 11:44:56;;;;;;;7.70;4.18;;;6.90;85.50;;;;;;4898359;29;20061;-80
2022/02/08 11:52:56;;;;;;;8.50;4.63;;;6.70;83.30;;;;;;4901690;29;20029;-80
2022/02/08 12:00:37;;;;;;;8.30;4.00;;;6.40;83.30;;;;;;4903544;29;20081;-79
2022/02/08 12:06:49;;;;;;;6.03;3.53;;;6.20;81.20;;;;;;4879669;29;20044;-79
2022/02/08 12:10:14;;;;;;;6.00;3.28;;;6.20;84.40;;;;;;4901132;29;20047;-79
2022/02/08 13:02:40;;;;;;;6.32;3.22;;;4.00;83.90;;;;;;4860644;29;20521;-80
2022/02/08 14:16:11;;;;;;;3.65;2.05;;;3.60;78.50;;;;;;4897931;29;20084;-83
2022/02/08 14:29:25;;;;;;;4.57;2.50;;;5.60;75.30;;;;;;4896590;29;20128;-82
2022/02/08 14:32:07;;;;;;;4.18;2.42;;;6.10;70.60;;;;;;4880588;29;20030;-83
2022/02/08 15:09:48;;;;;;;13.30;7.40;;;3.00;71.80;;;;;;4898755;29;20036;-82
2022/02/08 15:12:18;;;;;;;9.35;4.93;;;2.90;71.40;;;;;;4899064;29;20379;-82
2022/02/08 15:14:53;;;;;;;7.35;3.50;;;2.80;71.40;;;;;;4881860;29;20032;-81
2022/02/08 15:17:25;;;;;;;3.28;2.28;;;2.80;71.70;;;;;;4881816;29;20040;-84
2022/02/08 15:19:54;;;;;;;4.78;2.22;;;2.70;72.20;;;;;;4898647;29;20036;-83
2022/02/08 15:22:22;;;;;;;3.97;2.30;;;2.70;72.30;;;;;;4898889;29;20124;-85
2022/02/08 15:24:48;;;;;;;3.38;1.80;;;2.60;72.00;;;;;;4900930;29;20060;-85
2022/02/08 15:27:15;;;;;;;3.65;1.98;;;2.60;72.60;;;;;;4901990;29;20087;-79
2022/02/08 15:29:41;;;;;;;2.63;1.77;;;2.60;72.50;;;;;;4884951;29;20127;-79
2022/02/08 15:32:14;;;;;;;2.88;1.70;;;2.60;72.70;;;;;;4895505;29;20160;-79
2022/02/08 15:34:39;;;;;;;4.93;2.13;;;2.50;72.90;;;;;;4902357;29;20333;-78
2022/02/08 15:37:08;;;;;;;3.28;2.00;;;2.50;72.90;;;;;;4886380;29;20024;-81
2022/02/08 15:39:34;;;;;;;4.43;2.05;;;2.50;72.60;;;;;;4912374;29;20138;-79
2022/02/08 15:42:03;;;;;;;3.40;1.95;;;2.50;73.00;;;;;;4911242;29;20033;-79
2022/02/08 15:44:29;;;;;;;105.15;53.28;;;2.40;72.90;;;;;;4906691;29;20032;-82
2022/02/08 15:46:55;;;;;;;39.85;20.08;;;2.40;73.20;;;;;;4886445;29;20035;-79
2022/02/08 15:49:21;;;;;;;24.83;12.82;;;2.50;73.00;;;;;;4884999;29;20033;-79
2022/02/08 15:51:54;;;;;;;16.90;8.15;;;2.50;73.30;;;;;;4884307;29;20029;-80
2022/02/08 15:54:33;;;;;;;10.85;5.50;;;2.50;73.50;;;;;;4901714;29;20032;-80
2022/02/08 16:08:19;;;;;;;4.45;1.95;;;2.30;73.00;;;;;;4882577;29;20072;-77
2022/02/08 16:10:42;;;;;;;3.22;1.85;;;2.30;73.30;;;;;;4880807;29;20113;-80
2022/02/08 16:16:44;;;;;;;3.03;1.73;;;2.30;72.90;;;;;;4889552;29;20146;-80
2022/02/08 16:21:35;;;;;;;1.98;1.70;;;2.30;73.10;;;;;;4889332;29;20033;-79
2022/02/08 16:29:21;;;;;;;4.25;2.05;;;2.30;73.20;;;;;;4899576;29;20531;-79
2022/02/08 16:56:27;;;;;;;11.82;6.25;;;2.30;73.20;;;;;;4900168;29;20063;-81
2022/02/08 16:58:58;;;;;;;9.73;4.53;;;2.30;73.00;;;;;;4883553;29;20459;-83
2022/02/08 17:01:28;;;;;;;6.93;3.08;;;2.30;73.30;;;;;;4900876;29;20039;-79
2022/02/08 17:03:54;;;;;;;5.38;2.90;;;2.30;73.40;;;;;;4883267;29;20033;-79
2022/02/08 17:06:23;;;;;;;4.47;2.50;;;2.30;73.30;;;;;;4883188;29;20033;-77
2022/02/08 17:08:56;;;;;;;3.83;2.25;;;2.30;73.50;;;;;;4883455;29;20056;-78
2022/02/08 17:11:41;;;;;;;5.80;2.50;;;2.30;73.50;;;;;;4882957;29;20068;-79
2022/02/08 17:47:13;;;;;;;3.97;2.30;;;2.30;73.20;;;;;;4889623;29;20035;-82
2022/02/08 17:49:31;;;;;;;3.65;2.10;;;2.40;73.40;;;;;;4871361;29;20051;-82
2022/02/08 17:51:56;;;;;;;4.82;2.60;;;2.40;73.40;;;;;;4886246;29;20029;-83
2022/02/08 17:54:22;;;;;;;5.50;2.67;;;2.40;73.20;;;;;;4868974;29;20024;-81
2022/02/08 17:56:48;;;;;;;4.88;2.30;;;2.40;72.90;;;;;;4887472;29;20032;-79
2022/02/08 17:59:13;;;;;;;4.45;2.30;;;2.40;73.50;;;;;;4885970;29;20061;-86
2022/02/08 18:01:39;;;;;;;390.10;173.43;;;2.40;72.90;;;;;;4889595;29;20052;-82
2022/02/08 18:04:06;;;;;;;157.90;75.28;;;2.30;73.00;;;;;;4854114;29;20029;-82
2022/02/08 18:06:32;;;;;;;84.65;39.25;;;2.30;72.70;;;;;;4870677;29;20031;-84
2022/02/08 18:09:13;;;;;;;47.78;22.10;;;2.40;72.90;;;;;;4871025;29;20048;-82
2022/02/08 18:11:42;;;;;;;25.80;12.90;;;2.40;72.90;;;;;;4873583;29;20408;-82
2022/02/08 18:14:14;;;;;;;17.38;8.60;;;2.40;72.90;;;;;;4870219;29;20088;-84
2022/02/08 18:16:41;;;;;;;12.57;5.80;;;2.40;73.10;;;;;;4867206;29;20037;-84
2022/02/08 18:19:17;;;;;;;10.15;4.70;;;2.40;73.60;;;;;;4885141;29;20037;-81
2022/02/08 18:22:12;;;;;;;8.23;3.92;;;2.40;73.40;;;;;;4891167;29;20468;-82
2022/02/08 18:27:44;;;;;;;5.25;3.22;;;2.30;73.20;;;;;;4874327;29;20040;-84
2022/02/08 19:03:17;;;;;;;5.88;2.70;;;2.30;72.80;;;;;;4893992;29;20064;-86
2022/02/08 19:17:33;;;;;;;7.03;3.30;;;2.20;73.90;;;;;;4870624;29;20040;-84
2022/02/08 19:20:05;;;;;;;5.43;3.20;;;2.20;73.80;;;;;;4872962;29;20056;-85
2022/02/08 19:22:32;;;;;;;6.63;2.78;;;2.20;73.40;;;;;;4887765;29;20036;-84
2022/02/08 19:24:58;;;;;;;5.70;2.85;;;2.20;73.40;;;;;;4880940;29;20028;-81
2022/02/08 19:27:24;;;;;;;5.80;3.22;;;2.20;73.40;;;;;;4891867;29;20432;-83
2022/02/08 19:29:55;;;;;;;7.38;3.60;;;2.20;73.50;;;;;;4882331;29;20115;-86
2022/02/08 19:32:29;;;;;;;5.03;2.70;;;2.20;73.40;;;;;;4872860;29;20128;-83
2022/02/08 19:34:58;;;;;;;4.35;2.40;;;2.20;72.80;;;;;;4887095;29;20174;-85
2022/02/08 19:37:24;;;;;;;3.42;2.55;;;2.20;73.00;;;;;;4888793;29;20059;-83
2022/02/08 19:39:51;;;;;;;3.58;2.30;;;2.20;72.50;;;;;;4893411;29;20044;-83
2022/02/08 19:42:23;;;;;;;4.72;2.28;;;2.10;72.60;;;;;;4890006;29;20041;-84
2022/02/08 19:44:55;;;;;;;4.15;2.35;;;2.20;72.70;;;;;;4890331;29;20396;-84
2022/02/08 19:47:22;;;;;;;2.90;2.00;;;2.20;72.80;;;;;;4884888;29;20112;-85
2022/02/08 19:49:48;;;;;;;4.18;2.25;;;2.10;72.80;;;;;;4876122;29;20103;-86
2022/02/08 19:52:14;;;;;;;6.15;2.20;;;2.10;72.80;;;;;;4882566;29;20484;-84
2022/02/08 19:55:38;;;;;;;4.25;2.10;;;2.10;72.60;;;;;;4882758;29;20071;-87
2022/02/08 19:57:38;;;;;;;3.75;2.05;;;2.00;72.60;;;;;;4877977;29;20144;-83
2022/02/08 20:00:09;;;;;;;3.45;2.30;;;2.00;72.90;;;;;;4883656;29;20488;-81
2022/02/08 20:02:42;;;;;;;4.03;2.20;;;2.00;72.80;;;;;;4882820;29;20152;-85
2022/02/08 20:05:11;;;;;;;4.32;2.60;;;2.00;73.00;;;;;;4885010;29;20029;-86
2022/02/08 20:07:37;;;;;;;4.63;2.20;;;1.90;73.20;;;;;;4886017;29;20776;-85
2022/02/08 20:10:04;;;;;;;3.00;2.05;;;1.90;73.30;;;;;;4867387;29;20029;-84
2022/02/08 20:12:31;;;;;;;3.22;2.30;;;1.90;73.80;;;;;;4871814;29;21133;-86
2022/02/08 20:14:59;;;;;;;4.70;1.85;;;1.90;74.10;;;;;;4869441;29;20033;-84
2022/02/08 20:17:25;;;;;;;3.90;2.60;;;1.90;74.00;;;;;;4892856;29;20047;-87
2022/02/08 20:19:57;;;;;;;4.57;2.80;;;1.80;74.40;;;;;;4877890;29;20080;-84
2022/02/08 20:22:30;;;;;;;5.28;2.60;;;1.80;74.60;;;;;;4882614;29;20036;-85
2022/02/08 20:24:58;;;;;;;8.60;4.18;;;1.90;74.80;;;;;;4899830;29;20024;-83
2022/02/08 20:27:47;;;;;;;6.38;3.60;;;1.80;74.70;;;;;;4889560;29;20033;-85
2022/02/08 20:30:15;;;;;;;6.45;3.33;;;1.90;75.00;;;;;;4886671;29;20040;-85
2022/02/08 20:32:41;;;;;;;5.15;2.95;;;1.90;74.90;;;;;;4881886;29;20034;-83
2022/02/08 20:35:08;;;;;;;4.63;2.90;;;1.80;74.90;;;;;;4891916;29;20035;-82
2022/02/08 20:37:38;;;;;;;6.55;2.90;;;1.80;75.50;;;;;;4883613;29;20040;-82
2022/02/08 20:40:08;;;;;;;4.43;2.75;;;1.80;75.10;;;;;;4881352;29;20166;-82
2022/02/08 20:42:34;;;;;;;4.90;3.05;;;1.80;75.50;;;;;;4879242;29;20060;-85
2022/02/08 20:44:59;;;;;;;6.45;3.70;;;1.80;75.60;;;;;;4881264;29;20029;-82
2022/02/08 20:47:27;;;;;;;6.45;3.30;;;1.80;75.60;;;;;;4882600;29;20103;-82
2022/02/08 20:50:09;;;;;;;5.82;3.50;;;1.70;75.60;;;;;;4898697;29;20032;-82
2022/02/08 20:52:41;;;;;;;7.53;3.55;;;1.70;75.50;;;;;;4883657;29;20025;-84
2022/02/08 20:55:11;;;;;;;6.30;3.15;;;1.80;75.50;;;;;;4882991;29;20141;-79
2022/02/08 20:57:39;;;;;;;5.75;3.40;;;1.70;75.50;;;;;;4881451;29;20365;-81
2022/02/08 21:00:11;;;;;;;5.60;3.40;;;1.70;75.50;;;;;;4898376;29;20391;-82
2022/02/08 21:02:42;;;;;;;6.68;3.60;;;1.70;75.70;;;;;;4881108;29;20119;-82